L Anse, Michigan
Current Conditions -  °F | °C
As of 12:53 PM on Saturday 25 Oct 2014 (Local Time) from KCMX Reporting Station
Clear Clear  
Wind Chill: 11°   Ceiling: Unl
Heat Index: 11°   Visibility: 10mi
Dew Point:   Wind: 25mph
Humidity: 54%   Direction: 270°W
Pressure: 29.73"   Gusts: 46mph
Location:  46.7277°N, 88.2881°W
Report Text: KCMX 251653Z AUTO 27022G40KT 10SM CLR 11/02 A2973 RMK AO2 PK WND 27041/1638 SLP070 T01060017
Loading
Personal Weather Stations






























Interactive Weather Map
Tropical Storm Tracking
New forecast layout! Learn more

10-Day Weather Forecast

Advertisements
Track Severe Weather on mobile